Time,TemperatureF,DewpointF,PressureIn,WindDirection,WindDirectionDegrees,WindSpeedMPH,WindSpeedGustMPH,Humidity,HourlyPrecipIn,Conditions,Clouds,dailyrainin,SoftwareType,DateUTC
2017-05-23 00:00:00,52.6,30.7,30.27,NNE,22,6.0,7.0,43,0.00,,,0.00,Weather View 32 v70,2017-05-23 06:00:00,
2017-05-23 00:05:00,52.5,30.6,30.27,NNE,22,8.0,8.0,43,0.00,,,0.00,Weather View 32 v70,2017-05-23 06:05:00,
2017-05-23 00:15:00,51.5,30.8,30.27,NNE,22,8.0,9.0,45,0.00,,,0.00,Weather View 32 v70,2017-05-23 06:15:00,
2017-05-23 00:20:00,50.7,31.2,30.26,NNE,22,8.0,10.0,47,0.00,,,0.00,Weather View 32 v70,2017-05-23 06:20:00,
2017-05-23 00:25:00,50.0,31.6,30.27,NNE,22,8.0,10.0,49,0.00,,,0.00,Weather View 32 v70,2017-05-23 06:25:00,
2017-05-23 00:35:00,50.3,31.8,30.26,NNE,22,7.0,10.0,49,0.00,,,0.00,Weather View 32 v70,2017-05-23 06:35:00,
2017-05-23 00:40:00,50.6,31.6,30.27,NNE,22,9.0,10.0,48,0.00,,,0.00,Weather View 32 v70,2017-05-23 06:40:00,
2017-05-23 00:50:00,50.7,31.7,30.26,NNE,22,8.0,10.0,48,0.00,,,0.00,Weather View 32 v70,2017-05-23 06:50:00,
2017-05-23 01:00:00,50.7,31.7,30.27,NNE,22,8.0,11.0,48,0.00,,,0.00,Weather View 32 v70,2017-05-23 07:00:00,
2017-05-23 01:10:00,50.5,31.5,30.27,NNE,22,8.0,11.0,48,0.00,,,0.00,Weather View 32 v70,2017-05-23 07:10:00,
2017-05-23 01:15:00,50.6,31.6,30.27,North,360,5.0,11.0,48,0.00,,,0.00,Weather View 32 v70,2017-05-23 07:15:00,
2017-05-23 01:20:00,50.7,31.7,30.26,North,360,5.0,11.0,48,0.00,,,0.00,Weather View 32 v70,2017-05-23 07:20:00,
2017-05-23 01:30:00,51.1,31.5,30.26,NNE,22,7.0,11.0,47,0.00,,,0.00,Weather View 32 v70,2017-05-23 07:30:00,
2017-05-23 01:40:00,50.8,31.3,30.27,NNE,22,5.0,11.0,47,0.00,,,0.00,Weather View 32 v70,2017-05-23 07:40:00,
2017-05-23 01:45:00,50.7,31.7,30.26,North,360,3.0,11.0,48,0.00,,,0.00,Weather View 32 v70,2017-05-23 07:45:00,
2017-05-23 01:55:00,50.9,31.9,30.26,NNE,22,7.0,11.0,48,0.00,,,0.00,Weather View 32 v70,2017-05-23 07:55:00,
2017-05-23 02:01:00,50.5,32.0,30.26,NNE,22,7.0,10.0,49,0.00,,,0.00,Weather View 32 v70,2017-05-23 08:01:00,
2017-05-23 02:10:00,49.5,32.6,30.26,NNE,22,5.0,10.0,52,0.00,,,0.00,Weather View 32 v70,2017-05-23 08:10:00,
2017-05-23 02:20:00,49.0,33.0,30.26,NNE,22,7.0,10.0,54,0.00,,,0.00,Weather View 32 v70,2017-05-23 08:20:00,
2017-05-23 02:30:00,49.0,32.6,30.26,NNE,22,6.0,10.0,53,0.00,,,0.00,Weather View 32 v70,2017-05-23 08:30:00,
2017-05-23 02:35:00,49.4,32.5,30.26,NNE,22,3.0,10.0,52,0.00,,,0.00,Weather View 32 v70,2017-05-23 08:35:00,
2017-05-23 02:45:00,49.1,32.2,30.25,NNE,22,6.0,10.0,52,0.00,,,0.00,Weather View 32 v70,2017-05-23 08:45:00,
2017-05-23 02:50:00,48.8,32.4,30.25,NNE,22,7.0,10.0,53,0.00,,,0.00,Weather View 32 v70,2017-05-23 08:50:00,
2017-05-23 03:00:00,48.8,31.9,30.26,NNE,22,6.0,10.0,52,0.00,,,0.00,Weather View 32 v70,2017-05-23 09:00:00,
2017-05-23 03:10:00,49.2,32.8,30.26,NNE,22,5.0,9.0,53,0.00,,,0.00,Weather View 32 v70,2017-05-23 09:10:00,
2017-05-23 03:20:00,48.8,32.9,30.26,NNE,22,6.0,9.0,54,0.00,,,0.00,Weather View 32 v70,2017-05-23 09:20:00,
2017-05-23 03:30:00,48.3,32.4,30.26,NNE,22,5.0,9.0,54,0.00,,,0.00,Weather View 32 v70,2017-05-23 09:30:00,
2017-05-23 03:35:00,48.0,32.1,30.26,North,360,2.0,8.0,54,0.00,,,0.00,Weather View 32 v70,2017-05-23 09:35:00,
2017-05-23 03:45:00,47.3,31.9,30.25,NNE,22,2.0,8.0,55,0.00,,,0.00,Weather View 32 v70,2017-05-23 09:45:00,
2017-05-23 03:50:00,47.3,31.9,30.25,NNE,22,0.0,8.0,55,0.00,,,0.00,Weather View 32 v70,2017-05-23 09:50:00,
2017-05-23 04:00:00,47.0,32.1,30.25,NNE,22,0.0,8.0,56,0.00,,,0.00,Weather View 32 v70,2017-05-23 10:00:00,
2017-05-23 04:05:00,46.8,32.3,30.25,NNE,22,2.0,8.0,57,0.00,,,0.00,Weather View 32 v70,2017-05-23 10:05:00,
2017-05-23 04:10:00,46.6,32.6,30.25,NNE,22,0.0,7.0,58,0.00,,,0.00,Weather View 32 v70,2017-05-23 10:10:00,
2017-05-23 04:15:00,46.3,32.7,30.25,NNE,22,4.0,7.0,59,0.00,,,0.00,Weather View 32 v70,2017-05-23 10:15:00,
2017-05-23 04:25:00,46.3,32.3,30.25,NNE,22,3.0,7.0,58,0.00,,,0.00,Weather View 32 v70,2017-05-23 10:25:00,
2017-05-23 04:35:00,46.6,32.2,30.25,NNE,22,2.0,4.0,57,0.00,,,0.00,Weather View 32 v70,2017-05-23 10:35:00,
2017-05-23 04:40:00,46.8,31.9,30.25,NNE,22,2.0,4.0,56,0.00,,,0.00,Weather View 32 v70,2017-05-23 10:40:00,
2017-05-23 04:45:00,47.0,32.1,30.25,NNE,22,2.0,4.0,56,0.00,,,0.00,Weather View 32 v70,2017-05-23 10:45:00,
2017-05-23 04:55:00,47.6,32.2,30.25,NE,45,3.0,4.0,55,0.00,,,0.00,Weather View 32 v70,2017-05-23 10:55:00,
2017-05-23 05:02:00,47.4,32.0,30.25,NNE,22,2.0,4.0,55,0.00,,,0.00,Weather View 32 v70,2017-05-23 11:02:00,
2017-05-23 05:10:00,46.7,32.3,30.25,NNE,22,4.0,6.0,57,0.00,,,0.00,Weather View 32 v70,2017-05-23 11:10:00,
2017-05-23 05:20:00,46.4,32.0,30.24,NNE,22,3.0,6.0,57,0.00,,,0.00,Weather View 32 v70,2017-05-23 11:20:00,
2017-05-23 05:30:00,46.2,32.2,30.25,NNE,22,3.0,6.0,58,0.00,,,0.00,Weather View 32 v70,2017-05-23 11:30:00,
2017-05-23 05:40:00,46.1,32.1,30.24,NNE,22,4.0,6.0,58,0.00,,,0.00,Weather View 32 v70,2017-05-23 11:40:00,
2017-05-23 05:45:00,45.9,31.9,30.24,NNE,22,4.0,7.0,58,0.00,,,0.00,Weather View 32 v70,2017-05-23 11:45:00,
2017-05-23 05:55:00,46.1,32.5,30.24,NNE,22,5.0,7.0,59,0.00,,,0.00,Weather View 32 v70,2017-05-23 11:55:00,
2017-05-23 06:03:00,46.1,32.5,30.24,NNE,22,3.0,7.0,59,0.00,,,0.00,Weather View 32 v70,2017-05-23 12:03:00,
2017-05-23 06:10:00,46.8,32.8,30.24,NNE,22,2.0,8.0,58,0.00,,,0.00,Weather View 32 v70,2017-05-23 12:10:00,
2017-05-23 06:20:00,47.0,32.5,30.25,NE,45,0.0,8.0,57,0.00,,,0.00,Weather View 32 v70,2017-05-23 12:20:00,
2017-05-23 06:25:00,47.0,33.0,30.25,NE,45,0.0,8.0,58,0.00,,,0.00,Weather View 32 v70,2017-05-23 12:25:00,
2017-05-23 06:35:00,47.2,33.2,30.25,ENE,67,3.0,8.0,58,0.00,,,0.00,Weather View 32 v70,2017-05-23 12:35:00,
2017-05-23 06:40:00,47.2,33.6,30.25,NE,45,3.0,8.0,59,0.00,,,0.00,Weather View 32 v70,2017-05-23 12:40:00,
2017-05-23 06:50:00,47.4,33.3,30.25,NNE,22,3.0,8.0,58,0.00,,,0.00,Weather View 32 v70,2017-05-23 12:50:00,
2017-05-23 07:00:00,48.4,34.3,30.25,East,90,2.0,8.0,58,0.00,,,0.00,Weather View 32 v70,2017-05-23 13:00:00,
2017-05-23 07:05:00,48.9,34.3,30.25,ESE,112,1.0,8.0,57,0.00,,,0.00,Weather View 32 v70,2017-05-23 13:05:00,
2017-05-23 07:10:00,49.0,34.4,30.25,ESE,112,1.0,7.0,57,0.00,,,0.00,Weather View 32 v70,2017-05-23 13:10:00,
2017-05-23 07:15:00,49.3,35.1,30.24,ENE,67,0.0,7.0,58,0.00,,,0.00,Weather View 32 v70,2017-05-23 13:15:00,
2017-05-23 07:20:00,49.4,35.2,30.24,ENE,67,2.0,5.0,58,0.00,,,0.00,Weather View 32 v70,2017-05-23 13:20:00,
2017-05-23 07:25:00,49.4,34.8,30.25,SE,135,0.0,5.0,57,0.00,,,0.00,Weather View 32 v70,2017-05-23 13:25:00,
2017-05-23 07:30:00,49.5,34.0,30.24,SSE,157,1.0,5.0,55,0.00,,,0.00,Weather View 32 v70,2017-05-23 13:30:00,
2017-05-23 07:40:00,49.9,34.3,30.25,SSE,157,2.0,5.0,55,0.00,,,0.00,Weather View 32 v70,2017-05-23 13:40:00,
2017-05-23 07:50:00,50.2,34.2,30.24,SSE,157,1.0,4.0,54,0.00,,,0.00,Weather View 32 v70,2017-05-23 13:50:00,
2017-05-23 07:55:00,50.5,34.4,30.25,SSE,157,2.0,4.0,54,0.00,,,0.00,Weather View 32 v70,2017-05-23 13:55:00,
2017-05-23 08:04:00,50.8,35.2,30.24,East,90,1.0,4.0,55,0.00,,,0.00,Weather View 32 v70,2017-05-23 14:04:00,
2017-05-23 08:10:00,51.6,35.9,30.24,ESE,112,0.0,4.0,55,0.00,,,0.00,Weather View 32 v70,2017-05-23 14:10:00,
2017-05-23 08:15:00,51.7,35.6,30.24,SE,135,3.0,4.0,54,0.00,,,0.00,Weather View 32 v70,2017-05-23 14:15:00,
2017-05-23 08:25:00,51.7,35.1,30.24,SSE,157,1.0,4.0,53,0.00,,,0.00,Weather View 32 v70,2017-05-23 14:25:00,
2017-05-23 08:30:00,51.8,35.2,30.24,SSE,157,0.0,4.0,53,0.00,,,0.00,Weather View 32 v70,2017-05-23 14:30:00,
2017-05-23 08:35:00,51.8,35.7,30.24,South,180,1.0,4.0,54,0.00,,,0.00,Weather View 32 v70,2017-05-23 14:35:00,
2017-05-23 08:45:00,52.2,35.1,30.24,WSW,247,1.0,5.0,52,0.00,,,0.00,Weather View 32 v70,2017-05-23 14:45:00,
2017-05-23 08:55:00,53.5,36.8,30.24,SSW,202,1.0,5.0,53,0.00,,,0.00,Weather View 32 v70,2017-05-23 14:55:00,
2017-05-23 09:00:00,53.8,37.0,30.24,SSW,202,3.0,5.0,53,0.00,,,0.00,Weather View 32 v70,2017-05-23 15:00:00,
2017-05-23 09:05:00,54.0,37.2,30.23,South,180,3.0,5.0,53,0.00,,,0.00,Weather View 32 v70,2017-05-23 15:05:00,
2017-05-23 09:15:00,53.7,36.0,30.23,South,180,0.0,5.0,51,0.00,,,0.00,Weather View 32 v70,2017-05-23 15:15:00,
2017-05-23 09:20:00,53.9,36.2,30.23,SW,225,1.0,5.0,51,0.00,,,0.00,Weather View 32 v70,2017-05-23 15:20:00,
2017-05-23 09:25:00,54.2,36.4,30.23,South,180,2.0,6.0,51,0.00,,,0.00,Weather View 32 v70,2017-05-23 15:25:00,
2017-05-23 09:35:00,54.5,37.7,30.23,SSE,157,5.0,6.0,53,0.00,,,0.00,Weather View 32 v70,2017-05-23 15:35:00,
2017-05-23 09:40:00,-999.9,-99.9,-100.00,North,-9999,-999.9,6.0,0,0.00,,,0.00,Weather View 32 v70,2017-05-23 15:40:00,
2017-05-23 09:45:00,-999.9,-99.9,-100.00,North,-9999,-999.9,6.0,0,0.00,,,0.00,Weather View 32 v70,2017-05-23 15:45:00,
2017-05-23 09:50:00,55.6,39.7,30.23,South,180,5.0,8.0,55,0.00,,,0.00,Weather View 32 v70,2017-05-23 15:50:00,
2017-05-23 10:00:00,56.3,39.4,30.22,South,180,4.0,11.0,53,0.00,,,0.00,Weather View 32 v70,2017-05-23 16:00:00,
2017-05-23 10:05:00,56.5,39.5,30.22,SSE,157,2.0,11.0,53,0.00,,,0.00,Weather View 32 v70,2017-05-23 16:05:00,
2017-05-23 10:15:00,57.0,39.5,30.22,SSW,202,2.0,11.0,52,0.00,,,0.00,Weather View 32 v70,2017-05-23 16:15:00,
2017-05-23 10:20:00,57.5,40.0,30.22,SSW,202,4.0,11.0,52,0.00,,,0.00,Weather View 32 v70,2017-05-23 16:20:00,
2017-05-23 10:25:00,58.1,40.5,30.21,SSE,157,10.0,11.0,52,0.00,,,0.00,Weather View 32 v70,2017-05-23 16:25:00,
2017-05-23 10:35:00,58.8,40.2,30.21,South,180,4.0,12.0,50,0.00,,,0.00,Weather View 32 v70,2017-05-23 16:35:00,
2017-05-23 10:45:00,59.2,40.0,30.21,SSW,202,4.0,12.0,49,0.00,,,0.00,Weather View 32 v70,2017-05-23 16:45:00,
2017-05-23 10:50:00,59.2,39.5,30.21,South,180,7.0,12.0,48,0.00,,,0.00,Weather View 32 v70,2017-05-23 16:50:00,
2017-05-23 11:00:00,59.6,38.7,30.21,SSE,157,8.0,13.0,46,0.00,,,0.00,Weather View 32 v70,2017-05-23 17:00:00,
2017-05-23 11:05:00,60.0,38.5,30.20,SSW,202,4.0,13.0,45,0.00,,,0.00,Weather View 32 v70,2017-05-23 17:05:00,
2017-05-23 11:10:00,60.1,38.1,30.20,SSE,157,6.0,15.0,44,0.00,,,0.00,Weather View 32 v70,2017-05-23 17:10:00,
2017-05-23 11:20:00,60.9,38.8,30.20,SSW,202,9.0,15.0,44,0.00,,,0.00,Weather View 32 v70,2017-05-23 17:20:00,
2017-05-23 11:25:00,61.1,39.0,30.20,WSW,247,6.0,15.0,44,0.00,,,0.00,Weather View 32 v70,2017-05-23 17:25:00,
2017-05-23 11:30:00,61.1,39.0,30.19,South,180,5.0,15.0,44,0.00,,,0.00,Weather View 32 v70,2017-05-23 17:30:00,
2017-05-23 11:40:00,61.2,38.5,30.19,SW,225,5.0,15.0,43,0.00,,,0.00,Weather View 32 v70,2017-05-23 17:40:00,
2017-05-23 11:50:00,61.4,38.1,30.18,WSW,247,4.0,15.0,42,0.00,,,0.00,Weather View 32 v70,2017-05-23 17:50:00,
2017-05-23 11:55:00,62.0,38.6,30.19,SSW,202,14.0,15.0,42,0.00,,,0.00,Weather View 32 v70,2017-05-23 17:55:00,
2017-05-23 12:05:00,62.1,38.1,30.18,SW,225,5.0,15.0,41,0.00,,,0.00,Weather View 32 v70,2017-05-23 18:05:00,
2017-05-23 12:15:00,62.8,39.3,30.18,SSE,157,7.0,15.0,42,0.00,,,0.00,Weather View 32 v70,2017-05-23 18:15:00,
2017-05-23 12:20:00,63.3,39.1,30.18,SW,225,4.0,15.0,41,0.00,,,0.00,Weather View 32 v70,2017-05-23 18:20:00,
2017-05-23 12:30:00,63.2,37.8,30.18,SSW,202,0.0,15.0,39,0.00,,,0.00,Weather View 32 v70,2017-05-23 18:30:00,
2017-05-23 12:35:00,63.5,38.7,30.17,South,180,7.0,15.0,40,0.00,,,0.00,Weather View 32 v70,2017-05-23 18:35:00,
2017-05-23 12:40:00,63.5,38.0,30.17,SSE,157,6.0,15.0,39,0.00,,,0.00,Weather View 32 v70,2017-05-23 18:40:00,
2017-05-23 12:45:00,63.1,37.0,30.17,WSW,247,9.0,15.0,38,0.00,,,0.00,Weather View 32 v70,2017-05-23 18:45:00,
2017-05-23 12:50:00,62.7,36.7,30.17,SSW,202,7.0,15.0,38,0.00,,,0.00,Weather View 32 v70,2017-05-23 18:50:00,
2017-05-23 12:55:00,62.9,37.5,30.17,South,180,7.0,15.0,39,0.00,,,0.00,Weather View 32 v70,2017-05-23 18:55:00,
2017-05-23 13:00:00,63.5,38.0,30.16,SSE,157,0.0,14.0,39,0.00,,,0.00,Weather View 32 v70,2017-05-23 19:00:00,
2017-05-23 13:07:00,63.8,37.6,30.16,SSW,202,3.0,14.0,38,0.00,,,0.00,Weather View 32 v70,2017-05-23 19:07:00,
2017-05-23 13:15:00,63.8,37.0,30.16,West,270,6.0,14.0,37,0.00,,,0.00,Weather View 32 v70,2017-05-23 19:15:00,
2017-05-23 13:25:00,63.9,35.6,30.16,WSW,247,8.0,14.0,35,0.00,,,0.00,Weather View 32 v70,2017-05-23 19:25:00,
2017-05-23 13:30:00,63.8,34.1,30.15,WSW,247,6.0,14.0,33,0.00,,,0.00,Weather View 32 v70,2017-05-23 19:30:00,
2017-05-23 13:35:00,63.6,33.9,30.15,SSW,202,12.0,14.0,33,0.00,,,0.00,Weather View 32 v70,2017-05-23 19:35:00,
2017-05-23 13:45:00,64.2,34.4,30.15,WSW,247,2.0,14.0,33,0.00,,,0.00,Weather View 32 v70,2017-05-23 19:45:00,
2017-05-23 13:50:00,64.7,34.9,30.15,WSW,247,7.0,14.0,33,0.00,,,0.00,Weather View 32 v70,2017-05-23 19:50:00,
2017-05-23 14:00:00,64.5,34.7,30.14,West,270,7.0,16.0,33,0.00,,,0.00,Weather View 32 v70,2017-05-23 20:00:00,
2017-05-23 14:05:00,64.4,34.6,30.14,NNW,337,3.0,16.0,33,0.00,,,0.00,Weather View 32 v70,2017-05-23 20:05:00,
2017-05-23 14:15:00,64.5,34.7,30.14,NNW,337,3.0,17.0,33,0.00,,,0.00,Weather View 32 v70,2017-05-23 20:15:00,
2017-05-23 14:30:00,64.6,34.0,30.13,South,180,4.0,17.0,32,0.00,,,0.00,Weather View 32 v70,2017-05-23 20:30:00,
2017-05-23 14:40:00,65.4,35.5,30.13,South,180,10.0,17.0,33,0.00,,,0.00,Weather View 32 v70,2017-05-23 20:40:00,
2017-05-23 14:45:00,65.5,35.6,30.13,West,270,5.0,17.0,33,0.00,,,0.00,Weather View 32 v70,2017-05-23 20:45:00,
2017-05-23 14:55:00,65.3,34.6,30.13,WSW,247,6.0,20.0,32,0.00,,,0.00,Weather View 32 v70,2017-05-23 20:55:00,
2017-05-23 15:00:00,65.3,34.6,30.12,South,180,10.0,20.0,32,0.00,,,0.00,Weather View 32 v70,2017-05-23 21:00:00,
2017-05-23 15:05:00,65.6,35.7,30.12,SSW,202,4.0,20.0,33,0.00,,,0.00,Weather View 32 v70,2017-05-23 21:05:00,
2017-05-23 15:10:00,65.8,35.8,30.12,South,180,14.0,20.0,33,0.00,,,0.00,Weather View 32 v70,2017-05-23 21:10:00,
2017-05-23 15:20:00,65.9,35.1,30.12,WSW,247,5.0,20.0,32,0.00,,,0.00,Weather View 32 v70,2017-05-23 21:20:00,
2017-05-23 15:30:00,66.0,35.2,30.11,SSW,202,6.0,20.0,32,0.00,,,0.00,Weather View 32 v70,2017-05-23 21:30:00,
2017-05-23 15:35:00,66.3,36.3,30.11,WNW,292,4.0,20.0,33,0.00,,,0.00,Weather View 32 v70,2017-05-23 21:35:00,
2017-05-23 15:45:00,66.9,36.8,30.10,WSW,247,3.0,20.0,33,0.00,,,0.00,Weather View 32 v70,2017-05-23 21:45:00,
2017-05-23 15:55:00,67.8,36.8,30.10,WNW,292,1.0,18.0,32,0.00,,,0.00,Weather View 32 v70,2017-05-23 21:55:00,
2017-05-23 16:00:00,67.7,36.7,30.10,SW,225,5.0,18.0,32,0.00,,,0.00,Weather View 32 v70,2017-05-23 22:00:00,
2017-05-23 16:05:00,67.5,36.5,30.10,SW,225,6.0,18.0,32,0.00,,,0.00,Weather View 32 v70,2017-05-23 22:05:00,
2017-05-23 16:10:00,67.3,36.4,30.10,SW,225,7.0,18.0,32,0.00,,,0.00,Weather View 32 v70,2017-05-23 22:10:00,
2017-05-23 16:20:00,67.2,37.8,30.10,SW,225,6.0,16.0,34,0.00,,,0.00,Weather View 32 v70,2017-05-23 22:20:00,
2017-05-23 16:30:00,68.0,39.3,30.09,SSW,202,2.0,16.0,35,0.00,,,0.00,Weather View 32 v70,2017-05-23 22:30:00,
2017-05-23 16:40:00,68.7,39.1,30.09,WSW,247,4.0,16.0,34,0.00,,,0.00,Weather View 32 v70,2017-05-23 22:40:00,
2017-05-23 16:45:00,68.5,39.0,30.08,SSW,202,8.0,16.0,34,0.00,,,0.00,Weather View 32 v70,2017-05-23 22:45:00,
2017-05-23 16:50:00,68.7,38.4,30.08,SSW,202,5.0,16.0,33,0.00,,,0.00,Weather View 32 v70,2017-05-23 22:50:00,
2017-05-23 16:55:00,69.1,38.7,30.07,SSW,202,6.0,16.0,33,0.00,,,0.00,Weather View 32 v70,2017-05-23 22:55:00,
2017-05-23 17:05:00,69.1,38.7,30.07,SSW,202,5.0,16.0,33,0.00,,,0.00,Weather View 32 v70,2017-05-23 23:05:00,
2017-05-23 17:10:00,69.0,38.6,30.07,WSW,247,4.0,16.0,33,0.00,,,0.00,Weather View 32 v70,2017-05-23 23:10:00,
2017-05-23 17:20:00,69.4,39.0,30.07,WSW,247,6.0,14.0,33,0.00,,,0.00,Weather View 32 v70,2017-05-23 23:20:00,
2017-05-23 17:30:00,69.1,37.9,30.06,West,270,3.0,12.0,32,0.00,,,0.00,Weather View 32 v70,2017-05-23 23:30:00,
2017-05-23 17:35:00,69.3,38.1,30.05,SW,225,7.0,12.0,32,0.00,,,0.00,Weather View 32 v70,2017-05-23 23:35:00,
2017-05-23 17:45:00,70.0,38.7,30.05,SSW,202,8.0,12.0,32,0.00,,,0.00,Weather View 32 v70,2017-05-23 23:45:00,
2017-05-23 17:50:00,69.9,38.6,30.04,SSW,202,9.0,12.0,32,0.00,,,0.00,Weather View 32 v70,2017-05-23 23:50:00,
2017-05-23 18:00:00,69.8,39.3,30.04,SSW,202,9.0,11.0,33,0.00,,,0.00,Weather View 32 v70,2017-05-24 00:00:00,
2017-05-23 18:10:00,70.3,39.8,30.03,WNW,292,6.0,11.0,33,0.00,,,0.00,Weather View 32 v70,2017-05-24 00:10:00,
2017-05-23 18:20:00,70.6,40.0,30.03,SSW,202,2.0,11.0,33,0.00,,,0.00,Weather View 32 v70,2017-05-24 00:20:00,
2017-05-23 18:30:00,70.8,39.4,30.02,South,180,6.0,13.0,32,0.00,,,0.00,Weather View 32 v70,2017-05-24 00:30:00,
2017-05-23 18:35:00,70.8,40.2,30.03,South,180,3.0,13.0,33,0.00,,,0.00,Weather View 32 v70,2017-05-24 00:35:00,
2017-05-23 18:40:00,70.7,40.1,30.02,SSW,202,2.0,13.0,33,0.00,,,0.00,Weather View 32 v70,2017-05-24 00:40:00,
2017-05-23 18:45:00,70.8,39.4,30.02,SW,225,5.0,13.0,32,0.00,,,0.00,Weather View 32 v70,2017-05-24 00:45:00,
2017-05-23 18:50:00,70.8,40.2,30.02,SSW,202,4.0,13.0,33,0.00,,,0.00,Weather View 32 v70,2017-05-24 00:50:00,
2017-05-23 18:55:00,70.7,39.3,30.02,WSW,247,8.0,13.0,32,0.00,,,0.00,Weather View 32 v70,2017-05-24 00:55:00,
2017-05-23 19:00:00,70.3,39.0,30.01,SW,225,5.0,13.0,32,0.00,,,0.00,Weather View 32 v70,2017-05-24 01:00:00,
2017-05-23 19:05:00,70.3,39.8,30.01,SW,225,5.0,13.0,33,0.00,,,0.00,Weather View 32 v70,2017-05-24 01:05:00,
2017-05-23 19:10:00,70.6,40.0,30.01,SW,225,5.0,13.0,33,0.00,,,0.00,Weather View 32 v70,2017-05-24 01:10:00,
2017-05-23 19:20:00,70.1,38.8,30.01,SW,225,4.0,13.0,32,0.00,,,0.00,Weather View 32 v70,2017-05-24 01:20:00,
2017-05-23 19:25:00,70.0,39.5,30.01,SW,225,4.0,12.0,33,0.00,,,0.00,Weather View 32 v70,2017-05-24 01:25:00,
2017-05-23 19:35:00,69.0,38.6,30.00,SW,225,7.0,11.0,33,0.00,,,0.00,Weather View 32 v70,2017-05-24 01:35:00,
2017-05-23 19:40:00,68.8,38.5,30.00,SW,225,10.0,11.0,33,0.00,,,0.00,Weather View 32 v70,2017-05-24 01:40:00,
2017-05-23 19:45:00,69.0,38.6,30.00,SW,225,5.0,11.0,33,0.00,,,0.00,Weather View 32 v70,2017-05-24 01:45:00,
2017-05-23 19:55:00,68.3,38.0,30.00,WSW,247,5.0,11.0,33,0.00,,,0.00,Weather View 32 v70,2017-05-24 01:55:00,
2017-05-23 20:00:00,67.9,38.4,30.00,WNW,292,4.0,11.0,34,0.00,,,0.00,Weather View 32 v70,2017-05-24 02:00:00,
2017-05-23 20:05:00,67.7,38.3,29.99,SSW,202,7.0,11.0,34,0.00,,,0.00,Weather View 32 v70,2017-05-24 02:05:00,
2017-05-23 20:11:00,67.5,38.1,30.00,WSW,247,5.0,11.0,34,0.00,,,0.00,Weather View 32 v70,2017-05-24 02:11:00,
2017-05-23 20:20:00,67.5,38.8,30.00,SW,225,4.0,10.0,35,0.00,,,0.00,Weather View 32 v70,2017-05-24 02:20:00,
2017-05-23 20:25:00,67.4,38.7,29.99,SW,225,8.0,10.0,35,0.00,,,0.00,Weather View 32 v70,2017-05-24 02:25:00,
2017-05-23 20:35:00,67.6,38.2,29.99,WSW,247,7.0,11.0,34,0.00,,,0.00,Weather View 32 v70,2017-05-24 02:35:00,
2017-05-23 20:45:00,67.4,38.0,29.98,SSW,202,8.0,11.0,34,0.00,,,0.00,Weather View 32 v70,2017-05-24 02:45:00,
2017-05-23 20:50:00,67.3,37.9,29.98,SW,225,6.0,11.0,34,0.00,,,0.00,Weather View 32 v70,2017-05-24 02:50:00,
2017-05-23 21:00:00,67.1,38.5,29.97,SW,225,5.0,11.0,35,0.00,,,0.00,Weather View 32 v70,2017-05-24 03:00:00,
2017-05-23 21:05:00,66.8,38.2,29.98,SW,225,4.0,11.0,35,0.00,,,0.00,Weather View 32 v70,2017-05-24 03:05:00,
2017-05-23 21:11:00,66.7,38.8,29.97,SW,225,4.0,11.0,36,0.00,,,0.00,Weather View 32 v70,2017-05-24 03:11:00,
2017-05-23 21:20:00,66.4,38.6,29.97,SW,225,5.0,11.0,36,0.00,,,0.00,Weather View 32 v70,2017-05-24 03:20:00,
2017-05-23 21:25:00,66.3,38.5,29.97,SSW,202,4.0,11.0,36,0.00,,,0.00,Weather View 32 v70,2017-05-24 03:25:00,
2017-05-23 21:30:00,65.8,38.7,29.97,SSW,202,2.0,11.0,37,0.00,,,0.00,Weather View 32 v70,2017-05-24 03:30:00,
2017-05-23 21:35:00,65.0,40.0,29.97,SSW,202,3.0,11.0,40,0.00,,,0.00,Weather View 32 v70,2017-05-24 03:35:00,
2017-05-23 21:45:00,64.1,40.5,29.97,SW,225,6.0,9.0,42,0.00,,,0.00,Weather View 32 v70,2017-05-24 03:45:00,
2017-05-23 21:55:00,64.2,40.6,29.96,SSW,202,4.0,11.0,42,0.00,,,0.00,Weather View 32 v70,2017-05-24 03:55:00,
2017-05-23 22:00:00,64.0,40.4,29.96,SSW,202,4.0,11.0,42,0.00,,,0.00,Weather View 32 v70,2017-05-24 04:00:00,
2017-05-23 22:05:00,63.8,39.6,29.96,SSW,202,5.0,11.0,41,0.00,,,0.00,Weather View 32 v70,2017-05-24 04:05:00,
2017-05-23 22:12:00,63.7,39.5,29.96,SSW,202,5.0,11.0,41,0.00,,,0.00,Weather View 32 v70,2017-05-24 04:12:00,
2017-05-23 22:30:00,64.1,37.9,29.95,WSW,247,6.0,11.0,38,0.00,,,0.00,Weather View 32 v70,2017-05-24 04:30:00,
2017-05-23 22:35:00,64.2,36.6,29.95,SSW,202,9.0,11.0,36,0.00,,,0.00,Weather View 32 v70,2017-05-24 04:35:00,
2017-05-23 22:40:00,63.9,36.4,29.95,SSW,202,6.0,11.0,36,0.00,,,0.00,Weather View 32 v70,2017-05-24 04:40:00,
2017-05-23 22:50:00,63.5,36.7,29.95,SSW,202,7.0,11.0,37,0.00,,,0.00,Weather View 32 v70,2017-05-24 04:50:00,
2017-05-23 22:55:00,63.1,36.3,29.94,SSW,202,5.0,11.0,37,0.00,,,0.00,Weather View 32 v70,2017-05-24 04:55:00,
2017-05-23 23:05:00,63.2,36.4,29.94,SW,225,10.0,11.0,37,0.00,,,0.00,Weather View 32 v70,2017-05-24 05:05:00,
2017-05-23 23:13:00,63.1,36.3,29.94,SW,225,4.0,11.0,37,0.00,,,0.00,Weather View 32 v70,2017-05-24 05:13:00,
2017-05-23 23:20:00,62.7,36.0,29.93,SW,225,8.0,11.0,37,0.00,,,0.00,Weather View 32 v70,2017-05-24 05:20:00,
2017-05-23 23:30:00,62.3,36.3,29.93,SSW,202,8.0,10.0,38,0.00,,,0.00,Weather View 32 v70,2017-05-24 05:30:00,
2017-05-23 23:35:00,62.0,36.0,29.93,SW,225,4.0,11.0,38,0.00,,,0.00,Weather View 32 v70,2017-05-24 05:35:00,
2017-05-23 23:40:00,62.0,36.7,29.92,WSW,247,6.0,11.0,39,0.00,,,0.00,Weather View 32 v70,2017-05-24 05:40:00,